Time;durP1;ratioP1;P1;durP2;ratioP2;P2;SDS_P1;SDS_P2;PMS_P1;PMS_P2;Temp;Humidity;BMP_temperature;BMP_pressure;BME280_temperature;BME280_humidity;BME280_pressure;Samples;Min_cycle;Max_cycle;Signal;HPM_P1;HPM_P2
2024/04/01 00:01:41;;;;;;;38.50;34.40;;;13.20;1.00;;;;;;5089826;28;20873;-73
2024/04/01 00:04:08;;;;;;;39.73;35.10;;;13.20;1.00;;;;;;5086915;27;20465;-74
2024/04/01 00:06:34;;;;;;;48.90;36.80;;;13.20;1.00;;;;;;5084805;28;20476;-73
2024/04/01 00:09:01;;;;;;;48.30;35.57;;;13.20;1.00;;;;;;5087629;28;20457;-75
2024/04/01 00:11:27;;;;;;;45.47;35.80;;;13.20;1.00;;;;;;5089767;28;20522;-75
2024/04/01 00:13:58;;;;;;;36.80;33.10;;;13.10;1.00;;;;;;5096489;27;20585;-74
2024/04/01 00:16:24;;;;;;;37.70;32.90;;;13.10;1.00;;;;;;5087623;28;20458;-75
2024/04/01 00:18:51;;;;;;;37.70;31.73;;;13.10;1.00;;;;;;5085872;27;20526;-74
2024/04/01 00:21:17;;;;;;;40.23;32.47;;;13.00;1.00;;;;;;5086251;28;20476;-74
2024/04/01 00:23:46;;;;;;;36.40;31.53;;;13.00;1.00;;;;;;5085820;28;20557;-74
2024/04/01 00:26:12;;;;;;;39.97;30.27;;;13.00;1.00;;;;;;5091104;28;21041;-74
2024/04/01 00:28:39;;;;;;;35.30;30.90;;;13.00;1.00;;;;;;5090597;27;21385;-75
2024/04/01 00:31:07;;;;;;;35.73;29.23;;;13.00;1.00;;;;;;5090625;27;20482;-75
2024/04/01 00:33:36;;;;;;;36.50;29.93;;;12.90;1.00;;;;;;5092106;27;20479;-74
2024/04/01 00:36:03;;;;;;;38.40;30.10;;;12.90;1.00;;;;;;5087749;28;20453;-74
2024/04/01 00:38:30;;;;;;;39.53;28.27;;;12.90;1.00;;;;;;5089980;27;21267;-74
2024/04/01 00:40:58;;;;;;;35.93;27.67;;;12.80;1.00;;;;;;5091232;28;20962;-74
2024/04/01 00:43:26;;;;;;;39.77;26.50;;;12.80;1.00;;;;;;5088783;28;20465;-74
2024/04/01 00:45:55;;;;;;;32.60;27.07;;;12.80;1.00;;;;;;5084665;27;20968;-74
2024/04/01 00:48:24;;;;;;;38.43;27.40;;;12.70;1.00;;;;;;5082710;28;20473;-76
2024/04/01 00:50:51;;;;;;;36.47;28.40;;;12.70;1.00;;;;;;5091535;27;20983;-75
2024/04/01 00:53:20;;;;;;;39.20;31.40;;;12.60;1.00;;;;;;5088542;27;20484;-75
2024/04/01 00:55:48;;;;;;;42.10;28.70;;;12.50;1.00;;;;;;5085061;28;20473;-75
2024/04/01 00:58:17;;;;;;;36.73;27.87;;;12.50;1.00;;;;;;5085676;28;20425;-74
2024/04/01 01:00:46;;;;;;;36.17;27.33;;;12.50;1.00;;;;;;5095175;27;20456;-73
2024/04/01 01:03:14;;;;;;;34.80;28.23;;;12.50;1.00;;;;;;5096588;27;20507;-74
2024/04/01 01:05:42;;;;;;;37.90;27.27;;;12.50;1.00;;;;;;5098303;27;20432;-74
2024/04/01 01:08:11;;;;;;;34.17;26.80;;;12.50;1.00;;;;;;5085188;27;20460;-75
2024/04/01 01:10:37;;;;;;;29.23;25.03;;;12.50;1.00;;;;;;5084609;27;20464;-75
2024/04/01 01:13:05;;;;;;;33.17;26.10;;;12.50;1.00;;;;;;5099350;27;20499;-76
2024/04/01 01:15:31;;;;;;;29.00;23.30;;;12.50;1.00;;;;;;5085468;28;20532;-75
2024/04/01 01:17:59;;;;;;;29.87;24.57;;;12.50;1.00;;;;;;5085071;27;20539;-74
2024/04/01 01:20:25;;;;;;;33.83;24.57;;;12.50;1.00;;;;;;5108525;27;20469;-74
2024/04/01 01:22:56;;;;;;;28.10;24.53;;;12.40;1.00;;;;;;5104806;27;20983;-75
2024/04/01 01:25:23;;;;;;;29.97;23.23;;;12.40;1.00;;;;;;5100985;27;20550;-74
2024/04/01 01:27:50;;;;;;;32.00;24.90;;;12.30;1.00;;;;;;5097765;27;20458;-73
2024/04/01 01:30:17;;;;;;;35.70;25.70;;;12.30;1.00;;;;;;5091131;27;20480;-74
2024/04/01 01:32:46;;;;;;;35.47;23.93;;;12.20;1.00;;;;;;5108724;27;20803;-73
2024/04/01 01:35:13;;;;;;;36.70;27.03;;;12.20;1.00;;;;;;5085622;28;20494;-74
2024/04/01 01:37:41;;;;;;;33.93;23.67;;;12.10;1.00;;;;;;5095838;27;20473;-75
2024/04/01 01:40:09;;;;;;;33.73;24.20;;;12.10;1.00;;;;;;5085904;27;20464;-74
2024/04/01 01:42:36;;;;;;;30.03;24.20;;;12.10;1.00;;;;;;5107232;27;20972;-74
2024/04/01 01:45:03;;;;;;;26.73;23.00;;;12.10;1.00;;;;;;5096798;27;22318;-73
2024/04/01 01:47:33;;;;;;;37.40;24.83;;;12.10;1.00;;;;;;5084647;28;20522;-73
2024/04/01 01:49:59;;;;;;;27.50;22.83;;;12.00;1.00;;;;;;5085058;27;20529;-72
2024/04/01 01:52:26;;;;;;;37.53;24.97;;;12.10;1.00;;;;;;5087119;28;20639;-74
2024/04/01 01:54:52;;;;;;;29.70;24.80;;;12.10;1.00;;;;;;5080760;28;20460;-75
2024/04/01 01:57:21;;;;;;;33.97;25.20;;;12.10;1.00;;;;;;5087313;27;20462;-74
2024/04/01 01:59:47;;;;;;;30.97;24.97;;;12.10;1.00;;;;;;5087021;28;21322;-74
2024/04/01 02:02:17;;;;;;;30.90;24.13;;;12.10;1.00;;;;;;5088311;27;20471;-73
2024/04/01 02:04:43;;;;;;;35.60;24.47;;;12.10;1.00;;;;;;5106308;27;20470;-74
2024/04/01 02:07:10;;;;;;;29.40;24.17;;;12.00;1.00;;;;;;5105193;27;20457;-74
2024/04/01 02:09:37;;;;;;;29.83;24.00;;;12.00;1.00;;;;;;5097919;27;20590;-74
2024/04/01 02:12:07;;;;;;;30.83;24.30;;;12.00;1.00;;;;;;5085847;27;20460;-74
2024/04/01 02:14:35;;;;;;;33.23;23.10;;;11.90;1.00;;;;;;5082306;28;20451;-74
2024/04/01 02:17:03;;;;;;;30.13;24.53;;;11.90;1.00;;;;;;5085554;27;20551;-75
2024/04/01 02:19:31;;;;;;;29.43;24.67;;;11.80;1.00;;;;;;5090293;27;20551;-73
2024/04/01 02:21:58;;;;;;;28.23;24.87;;;11.80;1.00;;;;;;5081494;28;21048;-73
2024/04/01 02:24:25;;;;;;;29.10;22.13;;;11.70;1.00;;;;;;5094973;27;21028;-73
2024/04/01 02:26:52;;;;;;;28.60;23.67;;;11.70;1.00;;;;;;5083592;27;20464;-73
2024/04/01 02:29:18;;;;;;;34.87;22.73;;;11.60;1.00;;;;;;5083052;28;20526;-71
2024/04/01 02:31:47;;;;;;;33.50;24.20;;;11.60;1.00;;;;;;5082478;28;20520;-74
2024/04/01 02:34:13;;;;;;;34.67;23.13;;;11.50;1.00;;;;;;5077451;28;20958;-73
2024/04/01 02:36:40;;;;;;;30.07;23.30;;;11.50;1.00;;;;;;5078414;27;20685;-75
2024/04/01 02:39:06;;;;;;;30.60;23.43;;;11.50;1.00;;;;;;5080213;28;20561;-74
2024/04/01 02:41:33;;;;;;;36.50;24.30;;;11.50;1.00;;;;;;5082441;28;20911;-73
2024/04/01 02:43:59;;;;;;;31.03;23.33;;;11.50;1.00;;;;;;5082347;27;20525;-73
2024/04/01 02:46:26;;;;;;;32.90;22.93;;;11.50;1.00;;;;;;5083501;27;20534;-73
2024/04/01 02:48:54;;;;;;;28.40;22.63;;;11.40;1.00;;;;;;5117285;27;20495;-74
2024/04/01 02:51:20;;;;;;;37.03;24.70;;;11.40;1.00;;;;;;5096593;27;20557;-71
2024/04/01 02:53:47;;;;;;;32.93;25.27;;;11.40;1.00;;;;;;5097372;27;20451;-74
2024/04/01 02:56:14;;;;;;;25.40;22.77;;;11.40;1.00;;;;;;5102978;27;20975;-74
2024/04/01 02:58:43;;;;;;;32.03;24.57;;;11.40;1.00;;;;;;5106691;27;20458;-74
2024/04/01 03:01:11;;;;;;;33.80;23.30;;;11.40;1.00;;;;;;5109553;27;20450;-74
2024/04/01 03:03:38;;;;;;;31.83;24.30;;;11.30;1.00;;;;;;5109685;27;20541;-74
2024/04/01 03:06:07;;;;;;;31.03;23.30;;;11.30;1.00;;;;;;5111061;27;20453;-73
2024/04/01 03:08:33;;;;;;;46.93;35.47;;;11.30;1.00;;;;;;5109800;27;20478;-73
2024/04/01 03:11:02;;;;;;;34.13;23.33;;;11.30;1.00;;;;;;5109900;27;20498;-74
2024/04/01 03:13:29;;;;;;;32.43;23.83;;;11.40;1.00;;;;;;5108780;27;21203;-76
2024/04/01 03:15:56;;;;;;;32.13;23.50;;;11.40;1.00;;;;;;5099821;27;20490;-72
2024/04/01 03:18:23;;;;;;;34.53;24.07;;;11.40;1.00;;;;;;5086924;28;20502;-73
2024/04/01 03:20:51;;;;;;;34.27;23.17;;;11.40;1.00;;;;;;5086872;27;20471;-73
2024/04/01 03:23:19;;;;;;;28.23;23.07;;;11.30;1.00;;;;;;5085447;28;20547;-74
2024/04/01 03:25:50;;;;;;;30.13;22.97;;;11.30;1.00;;;;;;5094519;27;20563;-74
2024/04/01 03:28:16;;;;;;;25.77;22.87;;;11.30;1.00;;;;;;5107896;27;20549;-74
2024/04/01 03:30:49;;;;;;;32.53;24.10;;;11.30;1.00;;;;;;5108803;27;20463;-73
2024/04/01 03:33:16;;;;;;;26.43;22.80;;;11.30;1.00;;;;;;5110999;27;21024;-73
2024/04/01 03:35:43;;;;;;;34.57;23.40;;;11.30;1.00;;;;;;5107890;27;20466;-74
2024/04/01 03:38:10;;;;;;;32.13;22.60;;;11.30;1.00;;;;;;5111268;27;20478;-75
2024/04/01 03:40:41;;;;;;;28.43;23.30;;;11.30;1.00;;;;;;5109044;27;20511;-75
2024/04/01 03:43:09;;;;;;;31.43;23.23;;;11.40;1.00;;;;;;5107922;27;21032;-74
2024/04/01 03:45:35;;;;;;;35.20;23.37;;;11.40;1.00;;;;;;5105626;27;20488;-73
2024/04/01 03:48:02;;;;;;;34.27;24.17;;;11.40;1.00;;;;;;5108951;27;20828;-73
2024/04/01 03:50:28;;;;;;;32.33;25.23;;;11.40;1.00;;;;;;5109112;27;20557;-71
2024/04/01 03:52:55;;;;;;;29.67;22.63;;;11.40;1.00;;;;;;5104577;27;20464;-71
2024/04/01 03:55:21;;;;;;;39.73;24.70;;;11.40;1.00;;;;;;5109232;27;20481;-74
2024/04/01 03:57:51;;;;;;;37.83;25.03;;;11.50;1.00;;;;;;5104743;27;21187;-71
2024/04/01 04:00:19;;;;;;;36.87;21.73;;;11.50;1.00;;;;;;5102831;27;20458;-74
2024/04/01 04:02:46;;;;;;;34.57;24.63;;;11.50;1.00;;;;;;5104226;27;20555;-71
2024/04/01 04:05:12;;;;;;;31.17;24.50;;;11.50;1.00;;;;;;5099926;27;21355;-76
2024/04/01 04:07:39;;;;;;;32.03;23.03;;;11.50;1.00;;;;;;5106814;27;20563;-73
2024/04/01 04:10:05;;;;;;;34.50;24.10;;;11.50;1.00;;;;;;5107817;27;20490;-72
2024/04/01 04:12:33;;;;;;;35.13;25.00;;;11.50;1.00;;;;;;5100311;27;21236;-70
2024/04/01 04:15:03;;;;;;;32.70;25.13;;;11.60;1.00;;;;;;5103604;27;20544;-72
2024/04/01 04:17:30;;;;;;;34.30;22.90;;;11.50;1.00;;;;;;5100396;27;20564;-70
2024/04/01 04:19:56;;;;;;;37.57;22.40;;;11.60;1.00;;;;;;5105774;27;20479;-70
2024/04/01 04:22:23;;;;;;;34.87;24.10;;;11.60;1.00;;;;;;5100374;27;20450;-70
2024/04/01 04:24:49;;;;;;;36.63;23.37;;;11.60;1.00;;;;;;5109092;27;20426;-71
2024/04/01 04:27:16;;;;;;;32.63;23.67;;;11.60;1.00;;;;;;5104826;27;21001;-71
2024/04/01 04:29:42;;;;;;;38.37;23.60;;;11.60;1.00;;;;;;5106681;27;20462;-70
2024/04/01 04:32:12;;;;;;;30.13;22.30;;;11.60;1.00;;;;;;5089794;27;20424;-71
2024/04/01 04:34:38;;;;;;;43.27;22.37;;;11.60;1.00;;;;;;5088586;27;20455;-72
2024/04/01 04:37:07;;;;;;;31.97;22.30;;;11.60;1.00;;;;;;5094759;27;21196;-70
2024/04/01 04:39:33;;;;;;;29.63;22.67;;;11.60;1.00;;;;;;5094321;27;21083;-70
2024/04/01 04:41:59;;;;;;;42.80;22.50;;;11.60;1.00;;;;;;5082428;27;20450;-71
2024/04/01 04:44:25;;;;;;;38.23;24.17;;;11.60;1.00;;;;;;5084528;28;20480;-70
2024/04/01 04:46:52;;;;;;;37.90;23.27;;;11.60;1.00;;;;;;5082093;27;20452;-72
2024/04/01 04:49:20;;;;;;;43.70;23.60;;;11.70;1.00;;;;;;5091890;27;20487;-71
2024/04/01 04:51:47;;;;;;;32.80;22.20;;;11.70;1.00;;;;;;5081322;27;20997;-71
2024/04/01 04:54:13;;;;;;;42.77;24.00;;;11.70;1.00;;;;;;5088858;27;20473;-70
2024/04/01 04:56:40;;;;;;;34.40;23.00;;;11.70;1.00;;;;;;5086920;27;20551;-70
2024/04/01 04:59:06;;;;;;;37.50;22.60;;;11.70;1.00;;;;;;5080860;28;21055;-72
2024/04/01 05:01:33;;;;;;;36.87;23.80;;;11.70;1.00;;;;;;5083185;27;20458;-72
2024/04/01 05:03:59;;;;;;;36.30;23.07;;;11.60;1.00;;;;;;5082192;28;20565;-70
2024/04/01 05:06:27;;;;;;;33.87;22.30;;;11.60;1.00;;;;;;5085697;27;20892;-70
2024/04/01 05:08:53;;;;;;;35.23;23.17;;;11.60;1.00;;;;;;5090566;27;20522;-71
2024/04/01 05:11:20;;;;;;;33.23;23.23;;;11.60;1.00;;;;;;5087020;28;20520;-72
2024/04/01 05:13:46;;;;;;;36.50;23.27;;;11.50;1.00;;;;;;5082405;27;20454;-73
2024/04/01 05:16:15;;;;;;;38.10;22.30;;;11.50;1.00;;;;;;5107329;27;20552;-73
2024/04/01 05:18:41;;;;;;;35.50;23.70;;;11.50;1.00;;;;;;5087282;27;20473;-73
2024/04/01 05:21:10;;;;;;;36.30;23.87;;;11.50;1.00;;;;;;5080109;28;20534;-72
2024/04/01 05:23:37;;;;;;;38.53;22.37;;;11.60;1.00;;;;;;5085859;28;21036;-72
2024/04/01 05:26:05;;;;;;;36.00;22.13;;;11.50;1.00;;;;;;5084789;28;20459;-73
2024/04/01 05:28:31;;;;;;;32.87;21.17;;;11.60;1.00;;;;;;5080490;28;21189;-75
2024/04/01 05:30:58;;;;;;;41.40;23.93;;;11.60;1.00;;;;;;5095874;27;20467;-71
2024/04/01 05:33:27;;;;;;;28.40;20.50;;;11.60;1.00;;;;;;5107512;27;20494;-71
2024/04/01 05:35:54;;;;;;;31.47;22.17;;;11.50;1.00;;;;;;5102408;27;20462;-72
2024/04/01 05:38:20;;;;;;;36.00;23.50;;;11.60;1.00;;;;;;5084324;28;20910;-71
2024/04/01 05:40:48;;;;;;;32.80;22.73;;;11.70;1.00;;;;;;5079839;28;20455;-71
2024/04/01 05:43:14;;;;;;;33.30;22.80;;;11.60;1.00;;;;;;5083687;28;20967;-74
2024/04/01 05:45:41;;;;;;;35.40;23.50;;;11.60;1.00;;;;;;5081157;28;20600;-73
2024/04/01 05:48:08;;;;;;;37.87;24.20;;;11.60;1.00;;;;;;5104566;27;20514;-73
2024/04/01 05:50:35;;;;;;;33.03;23.17;;;11.60;1.00;;;;;;5105214;27;20442;-70
2024/04/01 05:53:01;;;;;;;37.57;22.80;;;11.70;1.00;;;;;;5105687;27;20531;-71
2024/04/01 05:55:28;;;;;;;33.03;22.27;;;11.70;1.00;;;;;;5104554;27;20474;-70
2024/04/01 05:57:55;;;;;;;40.23;22.23;;;11.70;1.00;;;;;;5103603;27;20971;-70
2024/04/01 06:00:22;;;;;;;31.63;22.10;;;11.80;1.00;;;;;;5104425;27;20995;-70
2024/04/01 06:02:49;;;;;;;39.27;23.93;;;11.80;1.00;;;;;;5101648;27;20946;-70
2024/04/01 06:05:16;;;;;;;41.00;22.63;;;11.80;1.00;;;;;;5106257;27;20489;-70
2024/04/01 06:07:42;;;;;;;43.00;24.10;;;12.00;1.00;;;;;;5086249;27;20549;-70
2024/04/01 06:10:09;;;;;;;39.93;22.90;;;12.10;1.00;;;;;;5090403;27;20545;-70
2024/04/01 06:12:35;;;;;;;39.90;22.90;;;12.30;1.00;;;;;;5083293;28;20269;-72
2024/04/01 06:15:03;;;;;;;38.23;21.87;;;12.40;1.00;;;;;;5080365;28;20539;-73
2024/04/01 06:17:29;;;;;;;41.03;22.40;;;12.60;1.00;;;;;;5088551;27;20570;-70
2024/04/01 06:19:57;;;;;;;42.33;22.43;;;12.80;1.00;;;;;;5082601;28;20475;-73
2024/04/01 06:22:22;;;;;;;30.23;19.80;;;13.00;1.00;;;;;;5089778;27;20465;-72
2024/04/01 06:24:51;;;;;;;35.00;20.87;;;13.10;1.00;;;;;;5086266;27;20474;-70
2024/04/01 06:27:17;;;;;;;36.33;19.93;;;13.20;1.00;;;;;;5082814;28;20461;-72
2024/04/01 06:29:44;;;;;;;44.47;21.00;;;13.30;1.00;;;;;;5100095;27;21093;-71
2024/04/01 06:32:12;;;;;;;39.97;20.57;;;13.40;1.00;;;;;;5100335;27;20472;-71
2024/04/01 06:34:38;;;;;;;35.50;20.53;;;13.40;1.00;;;;;;5104415;27;20586;-72
2024/04/01 06:37:04;;;;;;;46.33;21.73;;;13.50;1.00;;;;;;5101487;27;22454;-72
2024/04/01 06:39:31;;;;;;;33.47;18.80;;;13.40;1.00;;;;;;5101763;27;20505;-71
2024/04/01 06:41:57;;;;;;;42.83;20.63;;;13.60;1.00;;;;;;5105386;27;20459;-71
2024/04/01 06:44:24;;;;;;;34.13;20.43;;;13.60;1.00;;;;;;5105316;27;20476;-73
2024/04/01 06:46:50;;;;;;;41.47;20.77;;;13.50;1.00;;;;;;5101086;27;20556;-70
2024/04/01 06:49:18;;;;;;;35.23;19.43;;;13.60;1.00;;;;;;5104076;27;20476;-74
2024/04/01 06:51:44;;;;;;;43.20;20.80;;;13.70;1.00;;;;;;5103192;27;20539;-72
2024/04/01 06:54:11;;;;;;;41.93;19.97;;;13.70;1.00;;;;;;5102726;27;20458;-75
2024/04/01 06:56:37;;;;;;;41.60;21.40;;;13.90;1.00;;;;;;5100774;27;20533;-72
2024/04/01 06:59:07;;;;;;;32.30;20.00;;;14.00;1.00;;;;;;5098074;27;21073;-73
2024/04/01 07:01:33;;;;;;;36.13;19.30;;;14.10;1.00;;;;;;5105650;27;20243;-73
2024/04/01 07:03:59;;;;;;;44.17;20.93;;;14.20;1.00;;;;;;5102133;27;20907;-73
2024/04/01 07:06:27;;;;;;;42.83;19.20;;;14.30;1.00;;;;;;5105161;27;20560;-72
2024/04/01 07:08:54;;;;;;;33.87;19.77;;;14.20;1.00;;;;;;5102490;27;20456;-75
2024/04/01 07:11:23;;;;;;;40.07;20.13;;;14.10;1.00;;;;;;5104152;27;20477;-73
2024/04/01 07:13:50;;;;;;;34.60;19.33;;;14.10;1.00;;;;;;5104084;27;20565;-72
2024/04/01 07:16:16;;;;;;;33.30;20.33;;;14.00;1.00;;;;;;5106556;27;20492;-72
2024/04/01 07:18:43;;;;;;;36.37;19.50;;;14.00;1.00;;;;;;5103753;27;20562;-71
2024/04/01 07:21:09;;;;;;;40.87;20.17;;;14.10;1.00;;;;;;5104970;27;20459;-72
2024/04/01 07:23:37;;;;;;;41.27;19.90;;;14.20;1.00;;;;;;5105694;27;20468;-70
2024/04/01 07:26:04;;;;;;;36.90;19.40;;;14.30;1.00;;;;;;5104303;27;20248;-70
2024/04/01 07:28:31;;;;;;;39.17;19.00;;;14.30;1.00;;;;;;5109193;27;20463;-73
2024/04/01 07:31:03;;;;;;;45.10;20.93;;;14.40;1.00;;;;;;5105681;27;20966;-70
2024/04/01 07:33:30;;;;;;;40.20;18.40;;;14.60;1.00;;;;;;5109163;27;20456;-72
2024/04/01 07:35:59;;;;;;;40.80;20.33;;;14.90;1.00;;;;;;5110875;27;20523;-71
2024/04/01 07:38:25;;;;;;;40.77;18.97;;;15.10;1.00;;;;;;5110325;27;20446;-72
2024/04/01 07:40:53;;;;;;;36.50;19.17;;;15.20;1.00;;;;;;5106181;27;21108;-71
2024/04/01 07:43:20;;;;;;;39.63;19.07;;;15.30;1.00;;;;;;5105048;27;20476;-73
2024/04/01 07:45:46;;;;;;;31.30;18.63;;;15.50;1.00;;;;;;5102370;27;20472;-72
2024/04/01 07:48:13;;;;;;;43.10;18.27;;;15.60;1.00;;;;;;5104544;27;20439;-72
2024/04/01 07:50:39;;;;;;;43.53;19.33;;;15.60;1.00;;;;;;5104821;27;20584;-72
2024/04/01 07:53:06;;;;;;;37.93;18.70;;;15.80;1.00;;;;;;5085424;28;20482;-73
2024/04/01 07:55:32;;;;;;;31.80;17.37;;;15.80;1.00;;;;;;5084785;27;20540;-73
2024/04/01 07:58:01;;;;;;;37.07;16.60;;;15.80;1.00;;;;;;5084583;27;20497;-72
2024/04/01 08:00:26;;;;;;;32.67;16.30;;;15.80;1.00;;;;;;5097086;27;21058;-73
2024/04/01 08:02:53;;;;;;;34.30;16.00;;;16.00;1.00;;;;;;5086510;27;20541;-73
2024/04/01 08:05:19;;;;;;;37.57;16.07;;;16.00;1.00;;;;;;5096694;27;20991;-73
2024/04/01 08:07:46;;;;;;;36.73;16.03;;;15.90;1.00;;;;;;5088526;27;20486;-72
2024/04/01 08:10:12;;;;;;;31.43;17.60;;;16.10;1.00;;;;;;5110479;27;20492;-73
2024/04/01 08:12:39;;;;;;;36.33;17.47;;;16.30;1.00;;;;;;5101840;27;20641;-73
2024/04/01 08:15:07;;;;;;;38.23;17.63;;;16.50;1.00;;;;;;5103511;27;20747;-76
2024/04/01 08:17:34;;;;;;;37.87;15.47;;;16.50;1.00;;;;;;5105129;27;20469;-72
2024/04/01 08:20:00;;;;;;;34.63;14.00;;;16.70;1.00;;;;;;5109526;27;20567;-73
2024/04/01 08:22:27;;;;;;;42.97;16.03;;;16.80;1.00;;;;;;5109389;27;21037;-73
2024/04/01 08:24:53;;;;;;;38.23;15.30;;;17.00;1.00;;;;;;5097599;27;20468;-72
2024/04/01 08:27:20;;;;;;;28.70;12.97;;;17.20;1.00;;;;;;5087032;28;21041;-72
2024/04/01 08:29:49;;;;;;;34.83;15.33;;;17.50;1.00;;;;;;5097165;27;20973;-72
2024/04/01 08:32:18;;;;;;;36.00;14.30;;;17.70;1.00;;;;;;5097937;27;20461;-74
2024/04/01 08:34:44;;;;;;;36.17;13.90;;;17.70;1.00;;;;;;5089997;27;20544;-75
2024/04/01 08:37:11;;;;;;;33.83;14.60;;;17.30;1.00;;;;;;5089098;27;20803;-73
2024/04/01 08:39:37;;;;;;;29.00;11.33;;;17.00;1.00;;;;;;5085682;27;20533;-74
2024/04/01 08:42:07;;;;;;;28.10;12.30;;;17.30;1.00;;;;;;5093638;27;20452;-74
2024/04/01 08:44:34;;;;;;;31.43;12.90;;;17.40;1.00;;;;;;5094791;27;20471;-75
2024/04/01 08:47:01;;;;;;;26.87;12.67;;;17.70;1.00;;;;;;5085806;28;20455;-75
2024/04/01 08:49:43;;;;;;;28.67;12.67;;;17.90;1.00;;;;;;5079953;27;20965;-74
2024/04/01 08:52:14;;;;;;;24.07;12.60;;;18.00;1.00;;;;;;5094913;27;20438;-74
2024/04/01 08:54:40;;;;;;;30.87;12.70;;;18.40;1.00;;;;;;5089116;27;20494;-75
2024/04/01 08:57:07;;;;;;;32.00;12.33;;;18.70;1.00;;;;;;5089295;27;20499;-75
2024/04/01 08:59:34;;;;;;;31.97;11.17;;;18.80;1.00;;;;;;5091132;27;20449;-75
2024/04/01 09:02:02;;;;;;;30.50;12.70;;;18.70;1.00;;;;;;5094814;27;20546;-74
2024/04/01 09:04:28;;;;;;;21.70;10.23;;;18.80;1.00;;;;;;5097985;27;20511;-75
2024/04/01 09:06:58;;;;;;;30.07;11.47;;;18.90;1.00;;;;;;5090986;27;20460;-74
2024/04/01 09:09:26;;;;;;;28.33;10.77;;;19.00;1.00;;;;;;5107090;27;20455;-75
2024/04/01 09:11:53;;;;;;;29.93;10.77;;;18.80;1.00;;;;;;5110276;27;20441;-74
2024/04/01 09:14:19;;;;;;;24.00;9.17;;;18.70;1.00;;;;;;5107274;27;20516;-76
2024/04/01 09:16:50;;;;;;;25.77;10.40;;;18.60;1.00;;;;;;5106079;27;20452;-74
2024/04/01 09:19:16;;;;;;;26.60;9.70;;;18.60;1.00;;;;;;5109981;27;20496;-74
2024/04/01 09:21:43;;;;;;;25.53;9.07;;;18.70;1.00;;;;;;5104565;27;20537;-77
2024/04/01 09:24:12;;;;;;;27.67;9.13;;;18.80;1.00;;;;;;5082468;28;20482;-76
2024/04/01 09:26:39;;;;;;;20.90;9.27;;;19.00;1.00;;;;;;5088749;27;20961;-74
2024/04/01 09:29:05;;;;;;;28.37;10.30;;;19.20;1.00;;;;;;5079375;27;20472;-75
2024/04/01 09:31:32;;;;;;;21.47;10.73;;;19.50;1.00;;;;;;5088865;27;20423;-75
2024/04/01 09:33:57;;;;;;;26.07;9.20;;;19.40;1.00;;;;;;5087340;28;20584;-75
2024/04/01 09:36:24;;;;;;;30.20;10.97;;;19.40;1.00;;;;;;5090010;27;20487;-75
2024/04/01 09:38:54;;;;;;;24.37;10.17;;;19.40;1.00;;;;;;5093761;27;20465;-76
2024/04/01 09:41:24;;;;;;;19.97;9.27;;;19.60;1.00;;;;;;5090184;27;20508;-76
2024/04/01 09:43:57;;;;;;;23.73;8.40;;;20.00;1.00;;;;;;5090432;27;21046;-74
2024/04/01 09:46:24;;;;;;;19.90;8.70;;;20.10;1.00;;;;;;5085134;28;20471;-74
2024/04/01 09:48:51;;;;;;;25.40;9.60;;;20.20;1.00;;;;;;5087743;27;20506;-73
2024/04/01 09:51:20;;;;;;;24.70;9.30;;;20.20;1.00;;;;;;5101047;27;20960;-74
2024/04/01 09:53:46;;;;;;;19.63;9.30;;;20.20;1.00;;;;;;5100546;27;20479;-76
2024/04/01 09:56:49;;;;;;;23.70;8.87;;;20.20;1.00;;;;;;5104993;27;20423;-74
2024/04/01 09:59:53;;;;;;;25.23;9.10;;;20.40;1.00;;;;;;5102890;27;20563;-73
2024/04/01 10:02:45;;;;;;;21.20;8.37;;;20.90;1.00;;;;;;5084900;28;20460;-73
2024/04/01 10:05:37;;;;;;;20.67;8.20;;;21.40;1.00;;;;;;5089418;27;20474;-72
2024/04/01 10:08:38;;;;;;;17.17;7.10;;;22.00;1.00;;;;;;5105048;27;20449;-75
2024/04/01 10:11:23;;;;;;;17.63;8.00;;;23.40;1.00;;;;;;5108025;27;20456;-73
2024/04/01 10:14:16;;;;;;;18.13;6.87;;;25.10;1.00;;;;;;5108049;27;20983;-74
2024/04/01 10:17:24;;;;;;;13.27;6.77;;;26.10;1.00;;;;;;5104342;27;20480;-73
2024/04/01 10:20:44;;;;;;;18.60;6.50;;;26.90;1.00;;;;;;5082128;27;20662;-73
2024/04/01 10:23:41;;;;;;;12.57;5.83;;;28.00;1.00;;;;;;5058032;28;20465;-73
2024/04/01 10:26:41;;;;;;;12.60;6.07;;;29.20;1.00;;;;;;5049054;28;20554;-73
2024/04/01 10:29:49;;;;;;;18.30;6.53;;;29.50;1.00;;;;;;5083175;28;20455;-75
2024/04/01 10:32:56;;;;;;;13.93;5.47;;;29.60;1.00;;;;;;5086002;28;20557;-74
2024/04/01 10:36:08;;;;;;;13.17;5.57;;;28.80;1.00;;;;;;5083893;28;20466;-74
2024/04/01 10:39:11;;;;;;;15.07;5.57;;;28.30;1.00;;;;;;5081874;27;20541;-74
2024/04/01 10:42:07;;;;;;;13.90;5.30;;;28.10;1.00;;;;;;5091148;27;20468;-73
2024/04/01 10:45:01;;;;;;;10.63;5.07;;;27.50;1.00;;;;;;5083404;28;20567;-76
2024/04/01 10:48:02;;;;;;;15.10;6.20;;;27.20;1.00;;;;;;5105997;27;20457;-74
2024/04/01 10:51:02;;;;;;;15.10;5.00;;;26.50;1.00;;;;;;5106947;27;20483;-73
2024/04/01 10:53:56;;;;;;;12.73;5.27;;;26.50;1.00;;;;;;5101418;27;20461;-75
2024/04/01 10:57:14;;;;;;;12.10;6.40;;;26.20;1.00;;;;;;5093107;27;20510;-75
2024/04/01 11:00:14;;;;;;;14.60;5.90;;;25.70;1.00;;;;;;5046663;28;20936;-77
2024/04/01 11:03:13;;;;;;;10.50;4.90;;;25.10;1.00;;;;;;5041893;28;20466;-76
2024/04/01 11:06:12;;;;;;;15.90;7.33;;;24.60;1.00;;;;;;5093864;28;20471;-76
2024/04/01 11:08:52;;;;;;;18.57;5.10;;;24.40;1.00;;;;;;5080836;27;20542;-76
2024/04/01 11:11:32;;;;;;;14.00;5.87;;;24.20;1.00;;;;;;5103478;27;20520;-75
2024/04/01 11:14:01;;;;;;;12.83;5.50;;;23.70;1.00;;;;;;5111476;27;20445;-74
2024/04/01 11:16:31;;;;;;;10.63;5.07;;;23.50;1.00;;;;;;5109131;27;20480;-75
2024/04/01 11:19:15;;;;;;;11.33;4.90;;;23.80;1.00;;;;;;5111373;27;20459;-76
2024/04/01 11:21:51;;;;;;;10.70;5.13;;;23.90;1.00;;;;;;5114855;27;20426;-76
2024/04/01 11:24:30;;;;;;;14.43;6.03;;;24.20;1.00;;;;;;5087380;28;20460;-75
2024/04/01 11:27:17;;;;;;;20.80;6.00;;;24.30;1.00;;;;;;5082997;27;20466;-75
2024/04/01 11:30:03;;;;;;;12.93;5.77;;;24.50;1.00;;;;;;5100527;27;20465;-75
2024/04/01 11:32:38;;;;;;;15.93;7.77;;;24.60;1.00;;;;;;5090165;28;20963;-74
2024/04/01 11:35:13;;;;;;;17.83;6.07;;;24.50;1.00;;;;;;5084969;28;20462;-75
2024/04/01 11:37:51;;;;;;;11.37;4.43;;;24.30;1.00;;;;;;5108220;27;20517;-75
2024/04/01 11:40:21;;;;;;;12.17;4.37;;;23.70;1.00;;;;;;5110564;27;20876;-74
2024/04/01 11:42:54;;;;;;;10.23;4.43;;;23.40;1.00;;;;;;5106382;27;20468;-74
2024/04/01 11:45:24;;;;;;;13.30;4.57;;;23.30;1.00;;;;;;5094505;27;20460;-76
2024/04/01 11:47:52;;;;;;;10.90;4.80;;;23.30;1.00;;;;;;5086799;28;20471;-76
2024/04/01 11:50:19;;;;;;;9.33;3.67;;;23.00;1.00;;;;;;5088372;28;20484;-76
2024/04/01 11:52:58;;;;;;;11.47;3.97;;;23.10;1.00;;;;;;5088581;28;20475;-75
2024/04/01 11:55:24;;;;;;;10.80;3.57;;;23.20;1.00;;;;;;5083817;27;21083;-76
2024/04/01 11:57:51;;;;;;;11.53;4.10;;;23.60;1.00;;;;;;5095556;27;20558;-76
2024/04/01 12:00:18;;;;;;;8.57;3.40;;;23.60;1.00;;;;;;5109209;27;20460;-76
2024/04/01 12:02:53;;;;;;;12.57;4.20;;;23.80;1.00;;;;;;5107494;27;20639;-76
2024/04/01 12:05:20;;;;;;;9.37;4.27;;;24.00;1.00;;;;;;5103221;27;20466;-76
2024/04/01 12:07:50;;;;;;;8.80;3.43;;;24.10;1.00;;;;;;5089386;27;20465;-76
2024/04/01 12:10:17;;;;;;;12.20;4.50;;;24.20;1.00;;;;;;5088386;28;20539;-76
2024/04/01 12:12:46;;;;;;;11.00;4.87;;;24.80;1.00;;;;;;5090010;28;20897;-75
2024/04/01 12:15:17;;;;;;;12.30;4.10;;;25.00;1.00;;;;;;5087850;27;20445;-77
2024/04/01 12:17:44;;;;;;;16.00;4.63;;;24.80;1.00;;;;;;5084512;28;20473;-77
2024/04/01 12:20:11;;;;;;;9.90;4.20;;;24.50;1.00;;;;;;5090276;28;20508;-77
2024/04/01 12:22:38;;;;;;;14.20;4.20;;;24.20;1.00;;;;;;5095035;27;21007;-78
2024/04/01 12:25:07;;;;;;;11.30;4.20;;;24.00;1.00;;;;;;5089389;27;20435;-75
2024/04/01 12:27:36;;;;;;;9.93;3.93;;;23.90;1.00;;;;;;5086207;28;20498;-77
2024/04/01 12:30:05;;;;;;;9.50;3.63;;;23.80;1.00;;;;;;5085524;27;20451;-76
2024/04/01 12:32:40;;;;;;;7.67;4.20;;;23.60;1.00;;;;;;5099654;27;20480;-76
2024/04/01 12:35:10;;;;;;;11.33;4.30;;;23.50;1.00;;;;;;5088541;27;20536;-77
2024/04/01 12:37:41;;;;;;;7.73;3.43;;;23.60;1.00;;;;;;5096688;27;21075;-77
2024/04/01 12:40:10;;;;;;;8.80;4.30;;;23.20;1.00;;;;;;5083573;27;20448;-77
2024/04/01 12:42:38;;;;;;;10.93;3.67;;;23.00;1.00;;;;;;5099233;27;20963;-76
2024/04/01 12:45:06;;;;;;;9.13;3.83;;;23.10;1.00;;;;;;5106284;27;21037;-75
2024/04/01 12:47:35;;;;;;;13.13;4.23;;;23.10;1.00;;;;;;5106600;27;20507;-77
2024/04/01 12:50:02;;;;;;;11.67;3.63;;;23.10;1.00;;;;;;5109796;27;20810;-76
2024/04/01 12:52:45;;;;;;;8.20;3.60;;;23.10;1.00;;;;;;5109304;27;20455;-76
2024/04/01 12:55:21;;;;;;;10.80;3.50;;;22.80;1.00;;;;;;5107507;27;20485;-76
2024/04/01 12:58:09;;;;;;;12.20;4.00;;;22.60;1.00;;;;;;5108269;27;20522;-78